< < Back
Terminal Aerodrome Forecast


Current Version              Previous Versions:   1  2  3  4  5  6  7  8  9  

Terminal Aerodrome Forecast

867
FTUS42 KMLB 300252 AAA
TAFMCO
TAF AMD
KMCO 300252Z 3003/3024 07006KT P6SM FEW035
     FM300600 05003KT P6SM VCSH SCT040
     FM301500 09010KT P6SM SCT035
      TEMPO 3015/3017 BKN035=



Latest METAR

167
SAUS70 KWBC 301000 RRA
MTRMCO
METAR KMCO 300953Z 00000KT 10SM FEW025 FEW120 22/21 A3007 RMK AO2 SLP180
T02220206 $


USA.gov is the U.S. government's official web portal to all federal, state and local government web resources and services.